Time;durP1;ratioP1;P1;durP2;ratioP2;P2;SDS_P1;SDS_P2;PMS_P1;PMS_P2;Temp;Humidity;BMP_temperature;BMP_pressure;BME280_temperature;BME280_humidity;BME280_pressure;Samples;Min_cycle;Max_cycle;Signal;HPM_P1;HPM_P2
2023/11/15 00:00:07;;;;;;;6.90;6.20;;;;;;;-145.63;57.26;39391.91;4997200;28;20061;-68
2023/11/15 00:02:37;;;;;;;7.57;6.78;;;;;;;-145.63;57.23;39391.91;5003824;28;20165;-67
2023/11/15 00:05:03;;;;;;;8.88;6.95;;;;;;;-145.63;57.45;39425.16;4995226;28;20018;-67
2023/11/15 00:07:32;;;;;;;8.23;6.95;;;;;;;-145.63;57.41;39397.78;5003805;28;20558;-68
2023/11/15 00:09:57;;;;;;;8.13;7.32;;;;;;;-145.63;57.76;39431.03;4994754;28;20034;-68
2023/11/15 00:12:24;;;;;;;7.30;6.60;;;;;;;-145.63;57.90;39419.31;4999546;28;20033;-68
2023/11/15 00:14:52;;;;;;;8.05;6.80;;;;;;;-145.63;57.68;39403.66;4994122;28;20299;-67
2023/11/15 00:17:18;;;;;;;7.70;6.97;;;;;;;-145.63;57.76;39423.22;5004792;28;20030;-67
2023/11/15 00:19:45;;;;;;;8.50;7.05;;;;;;;-145.63;57.81;39331.28;4997547;28;20027;-67
2023/11/15 00:22:14;;;;;;;7.88;7.07;;;;;;;-145.63;57.74;39395.84;4988646;28;20081;-67
2023/11/15 00:24:41;;;;;;;8.30;7.50;;;;;;;-145.63;58.25;39235.47;4987379;28;20069;-68
2023/11/15 00:27:08;;;;;;;8.27;7.47;;;;;;;-145.63;57.95;39395.84;4986360;28;20027;-67
2023/11/15 00:29:34;;;;;;;10.07;7.93;;;;;;;-145.63;58.16;39403.66;4998160;28;20395;-67
2023/11/15 00:32:00;;;;;;;8.55;7.65;;;;;;;-145.63;58.01;39393.88;4994801;28;20059;-68
2023/11/15 00:34:26;;;;;;;8.00;7.20;;;;;;;-145.63;57.41;39401.69;5005384;28;20106;-67
2023/11/15 00:36:53;;;;;;;9.77;7.50;;;;;;;-145.63;57.01;39399.75;5003336;28;20022;-66
2023/11/15 00:39:19;;;;;;;9.35;7.55;;;;;;;-145.63;57.53;39407.56;5004344;28;20086;-67
2023/11/15 00:41:45;;;;;;;8.15;7.35;;;;;;;-145.63;57.21;39388.00;4988534;28;20034;-67
2023/11/15 00:44:11;;;;;;;8.27;7.47;;;;;;;-145.63;57.57;39403.66;4995660;28;20251;-68
2023/11/15 00:46:37;;;;;;;8.20;7.40;;;;;;;-145.63;57.53;39413.44;5003282;28;20030;-67
2023/11/15 00:49:03;;;;;;;8.98;7.93;;;;;;;-145.63;57.67;39395.84;5004224;28;20038;-68
2023/11/15 00:51:29;;;;;;;10.00;8.05;;;;;;;-145.63;57.62;39368.44;5004230;28;20038;-68
2023/11/15 00:53:55;;;;;;;8.88;7.97;;;;;;;-145.63;58.20;39411.47;4986244;28;20042;-68
2023/11/15 00:56:21;;;;;;;9.75;8.23;;;;;;;-145.63;57.88;39388.00;4997807;28;20072;-68
2023/11/15 00:58:46;;;;;;;10.38;8.68;;;;;;;-145.63;57.85;39378.22;5003976;28;20049;-66
2023/11/15 01:01:12;;;;;;;8.00;7.20;;;;;;;-145.63;57.41;39429.06;5000014;28;20049;-67
2023/11/15 01:03:45;;;;;;;8.05;7.25;;;;;;;-145.63;56.82;39391.91;4983427;28;20023;-67
2023/11/15 01:06:11;;;;;;;8.77;7.80;;;;;;;-145.63;57.63;39411.47;5002102;28;20330;-67
2023/11/15 01:08:37;;;;;;;9.13;7.28;;;;;;;-145.63;57.26;39411.47;4989817;28;20041;-67
2023/11/15 01:11:06;;;;;;;9.15;7.47;;;;;;;-145.63;57.37;39393.88;4990580;28;20107;-67
2023/11/15 01:13:32;;;;;;;8.18;7.15;;;;;;;-145.63;57.32;39423.22;4998395;28;20046;-67
2023/11/15 01:15:59;;;;;;;9.93;7.90;;;;;;;-145.63;57.41;39399.75;4997917;28;20026;-67
2023/11/15 01:18:26;;;;;;;8.68;7.78;;;;;;;-145.63;57.61;39407.56;5002663;28;20072;-67
2023/11/15 01:20:52;;;;;;;9.82;7.57;;;;;;;-145.63;57.63;39417.34;4987576;28;20081;-66
2023/11/15 01:23:18;;;;;;;9.85;8.57;;;;;;;-145.63;57.43;39403.66;4994359;28;20032;-67
2023/11/15 01:25:44;;;;;;;8.93;7.93;;;;;;;-145.63;57.52;39388.00;5003608;28;20022;-67
2023/11/15 01:28:11;;;;;;;10.43;8.25;;;;;;;-145.63;57.88;39388.00;5001343;28;20353;-67
2023/11/15 01:30:36;;;;;;;8.65;7.78;;;;;;;-145.63;57.78;39405.59;4984230;28;20033;-67
2023/11/15 01:33:02;;;;;;;9.07;8.15;;;;;;;-145.63;57.58;39282.41;5001371;28;20050;-67
2023/11/15 01:35:28;;;;;;;9.48;8.48;;;;;;;-145.63;57.72;39389.97;5002182;28;20038;-67
2023/11/15 01:37:54;;;;;;;10.88;9.30;;;;;;;-145.63;57.93;39399.75;5003381;28;20325;-67
2023/11/15 01:40:20;;;;;;;9.00;8.10;;;;;;;-145.63;58.15;39391.91;4982923;28;20078;-68
2023/11/15 01:42:49;;;;;;;10.07;8.80;;;;;;;-145.63;57.89;39403.66;4984193;28;20026;-68
2023/11/15 01:45:16;;;;;;;9.45;8.43;;;;;;;-145.63;57.90;39384.09;5002786;28;20027;-66
2023/11/15 01:47:42;;;;;;;10.40;8.93;;;;;;;-145.63;57.50;39397.78;4989106;28;20176;-66
2023/11/15 01:50:10;;;;;;;10.55;9.00;;;;;;;-145.63;57.51;39399.75;5000594;28;20034;-67
2023/11/15 01:52:37;;;;;;;9.60;8.60;;;;;;;-145.63;57.27;39372.34;4996920;28;20057;-67
2023/11/15 01:55:07;;;;;;;10.07;7.97;;;;;;;-145.63;57.01;39395.84;4969908;28;20029;-67
2023/11/15 01:57:35;;;;;;;9.00;8.05;;;;;;;-145.63;57.59;39409.53;5002049;28;20042;-68
2023/11/15 02:00:02;;;;;;;10.25;8.50;;;;;;;-145.63;57.47;39448.63;5003000;28;20042;-67
2023/11/15 02:02:30;;;;;;;9.88;8.10;;;;;;;-145.63;57.41;39395.84;4990831;28;20037;-67
2023/11/15 02:04:56;;;;;;;9.35;8.23;;;;;;;-145.63;57.80;39389.97;4991522;28;20022;-67
2023/11/15 02:07:21;;;;;;;11.80;8.30;;;;;;;-145.63;57.46;39413.44;5002955;28;20246;-67
2023/11/15 02:09:47;;;;;;;10.45;8.45;;;;;;;-145.63;57.77;39386.06;4995375;28;20057;-68
2023/11/15 02:12:13;;;;;;;9.68;8.55;;;;;;;-145.63;58.01;39389.97;4996848;28;20030;-68
2023/11/15 02:14:39;;;;;;;9.55;8.55;;;;;;;-145.63;57.61;39413.44;4992362;28;20042;-68
2023/11/15 02:17:05;;;;;;;11.20;9.20;;;;;;;-145.63;57.16;39380.19;5001732;28;20064;-67
2023/11/15 02:19:31;;;;;;;9.35;8.43;;;;;;;-145.63;57.50;39421.25;4998390;28;20026;-67
2023/11/15 02:21:57;;;;;;;9.77;8.85;;;;;;;-145.63;57.38;39395.84;4966542;28;20065;-67
2023/11/15 02:24:23;;;;;;;11.00;8.65;;;;;;;-145.63;57.18;39399.75;5021599;28;20045;-67
2023/11/15 02:26:49;;;;;;;9.05;8.15;;;;;;;-145.63;57.22;39399.75;4986611;28;20027;-67
2023/11/15 02:29:14;;;;;;;10.07;9.07;;;;;;;-145.63;56.95;39403.66;4993806;28;20026;-67
2023/11/15 02:31:40;;;;;;;9.30;8.30;;;;;;;-145.63;57.32;39397.78;4995873;28;20026;-67
2023/11/15 02:34:06;;;;;;;10.55;9.45;;;;;;;-145.63;57.22;39403.66;4984529;28;20047;-67
2023/11/15 02:36:32;;;;;;;9.10;8.07;;;;;;;-145.63;57.38;39389.97;5002804;28;20120;-67
2023/11/15 02:38:58;;;;;;;10.88;8.55;;;;;;;-145.63;57.95;39370.41;5001478;28;20322;-67
2023/11/15 02:41:24;;;;;;;9.10;8.20;;;;;;;-145.63;57.42;39384.09;5001610;28;20037;-68
2023/11/15 02:43:49;;;;;;;9.32;8.43;;;;;;;-145.63;57.48;39427.13;4995469;28;20034;-68
2023/11/15 02:46:22;;;;;;;10.07;8.80;;;;;;;-145.63;57.46;39374.31;4985608;28;20030;-66
2023/11/15 02:48:49;;;;;;;10.20;8.23;;;;;;;-145.63;57.53;39391.91;5002658;28;20053;-65
2023/11/15 02:51:14;;;;;;;8.98;8.07;;;;;;;-145.63;56.95;39431.03;5001486;28;20029;-68
2023/11/15 02:53:40;;;;;;;8.18;7.38;;;;;;;-145.63;57.26;39405.59;4988011;28;20207;-67
2023/11/15 02:56:07;;;;;;;9.43;8.52;;;;;;;-145.63;57.21;39395.84;4994272;28;20207;-67
2023/11/15 02:58:33;;;;;;;8.98;8.07;;;;;;;-145.63;57.22;39389.97;5001526;28;20246;-67
2023/11/15 03:00:59;;;;;;;9.60;8.48;;;;;;;-145.63;57.45;39399.75;5001357;28;20029;-69
2023/11/15 03:03:24;;;;;;;9.77;8.88;;;;;;;-145.63;56.93;39384.09;4984306;28;20038;-69
2023/11/15 03:05:50;;;;;;;8.90;8.00;;;;;;;-145.63;57.40;39409.53;5001520;28;20319;-68
2023/11/15 03:08:19;;;;;;;9.00;8.10;;;;;;;-145.63;57.28;39327.38;4995956;28;20027;-67
2023/11/15 03:10:46;;;;;;;9.88;8.88;;;;;;;-145.63;57.24;39391.91;4991187;28;20102;-67
2023/11/15 03:13:11;;;;;;;9.23;8.30;;;;;;;-145.63;57.42;39360.63;5004550;28;20377;-66
2023/11/15 03:15:37;;;;;;;9.73;8.77;;;;;;;-145.63;57.24;39380.19;4998733;28;20086;-67
2023/11/15 03:18:03;;;;;;;10.98;8.82;;;;;;;-145.63;57.95;39376.28;5004687;28;20030;-67
2023/11/15 03:20:31;;;;;;;10.00;8.85;;;;;;;-145.63;57.91;39393.88;4994103;28;20318;-68
2023/11/15 03:22:57;;;;;;;9.27;8.38;;;;;;;-145.63;57.36;39399.75;4992671;28;20052;-67
2023/11/15 03:25:23;;;;;;;10.50;8.95;;;;;;;-145.63;57.76;39415.38;5002713;28;20326;-67
2023/11/15 03:27:50;;;;;;;9.20;8.30;;;;;;;-145.63;57.41;39376.28;4985080;28;20026;-67
2023/11/15 03:30:17;;;;;;;9.68;8.68;;;;;;;-145.63;56.80;39384.09;5004559;28;20326;-67
2023/11/15 03:32:44;;;;;;;9.80;8.30;;;;;;;-145.63;56.99;39378.22;4991733;28;20035;-69
2023/11/15 03:35:10;;;;;;;9.63;8.63;;;;;;;-145.63;57.03;39405.59;4995276;28;20318;-67
2023/11/15 03:37:36;;;;;;;9.68;8.68;;;;;;;-145.63;56.61;39399.75;5005405;28;20081;-68
2023/11/15 03:40:02;;;;;;;9.82;8.82;;;;;;;-145.63;57.50;39405.59;5005634;28;20038;-68
2023/11/15 03:42:30;;;;;;;10.07;8.77;;;;;;;-145.63;56.63;39384.09;4986294;28;20089;-68
2023/11/15 03:44:58;;;;;;;9.20;8.30;;;;;;;-145.63;57.01;39407.56;5001551;28;20045;-68
2023/11/15 03:47:24;;;;;;;10.02;9.02;;;;;;;-145.63;56.78;39380.19;4995857;28;20034;-68
2023/11/15 03:49:50;;;;;;;10.25;8.82;;;;;;;-145.63;56.59;39389.97;4999981;28;20026;-68
2023/11/15 03:52:16;;;;;;;9.60;8.60;;;;;;;-145.63;56.43;39356.72;5003582;28;20394;-68
2023/11/15 03:54:42;;;;;;;9.77;8.77;;;;;;;-145.63;56.30;39409.53;4985959;28;20350;-68
2023/11/15 03:57:10;;;;;;;9.82;8.82;;;;;;;-145.63;56.15;39423.22;5005212;28;20029;-69
2023/11/15 03:59:36;;;;;;;9.82;8.85;;;;;;;-145.63;55.90;39415.38;5017679;28;20029;-67
2023/11/15 04:02:02;;;;;;;9.15;8.25;;;;;;;-145.63;55.91;39405.59;4993507;28;20038;-68
2023/11/15 04:04:28;;;;;;;9.68;8.68;;;;;;;-145.63;56.11;39407.56;5001815;28;20350;-68
2023/11/15 04:06:53;;;;;;;11.57;9.52;;;;;;;-145.63;56.25;39389.97;5000883;28;20026;-69
2023/11/15 04:09:19;;;;;;;10.68;9.23;;;;;;;-145.63;56.08;39384.09;4999392;28;20333;-68
2023/11/15 04:11:45;;;;;;;9.73;8.73;;;;;;;-145.63;56.01;39395.84;4993431;28;20035;-68
2023/11/15 04:14:11;;;;;;;8.77;7.85;;;;;;;-145.63;55.43;39378.22;4994300;28;20026;-68
2023/11/15 04:16:37;;;;;;;10.13;9.07;;;;;;;-145.63;55.42;39407.56;5004435;28;20022;-68
2023/11/15 04:19:03;;;;;;;10.55;9.50;;;;;;;-145.63;55.82;39431.03;5004864;28;20018;-69
2023/11/15 04:21:29;;;;;;;9.85;8.80;;;;;;;-145.63;55.45;39405.59;4984168;28;20034;-68
2023/11/15 04:23:55;;;;;;;8.80;7.90;;;;;;;-145.63;55.07;39384.09;4998805;28;20085;-68
2023/11/15 04:26:21;;;;;;;8.25;7.38;;;;;;;-145.63;54.88;39415.38;4994610;28;20050;-68
2023/11/15 04:28:47;;;;;;;7.75;6.80;;;;;;;-145.63;54.36;39403.66;4989642;28;20042;-70
2023/11/15 04:31:13;;;;;;;8.32;7.53;;;;;;;-145.63;54.82;39403.66;5003484;28;20087;-70
2023/11/15 04:33:39;;;;;;;8.77;7.95;;;;;;;-145.63;55.11;39427.13;4985044;28;20042;-70
2023/11/15 04:36:05;;;;;;;9.35;8.10;;;;;;;-145.63;55.17;39391.91;4999785;28;20034;-69
2023/11/15 04:38:31;;;;;;;8.70;7.80;;;;;;;-145.63;54.99;39395.84;5003155;28;20122;-70
2023/11/15 04:40:56;;;;;;;9.15;7.90;;;;;;;-145.63;54.93;39354.75;5001747;28;20022;-70
2023/11/15 04:43:23;;;;;;;9.52;7.63;;;;;;;-145.63;54.81;39411.47;4988105;28;20034;-70
2023/11/15 04:45:50;;;;;;;9.15;7.65;;;;;;;-145.63;55.46;39423.22;5004051;28;20053;-70
2023/11/15 04:48:16;;;;;;;8.15;7.18;;;;;;;-145.63;55.13;39438.84;5000307;28;20034;-70
2023/11/15 04:50:42;;;;;;;9.27;7.50;;;;;;;-145.63;54.44;39401.69;4991032;28;20099;-69
2023/11/15 04:53:08;;;;;;;8.80;7.80;;;;;;;-145.63;53.65;39409.53;4991602;28;20030;-69
2023/11/15 04:55:34;;;;;;;8.30;7.50;;;;;;;-145.63;54.09;39409.53;5003960;28;20022;-69
2023/11/15 04:58:01;;;;;;;8.52;7.25;;;;;;;-145.63;54.44;39397.78;5002757;28;20064;-69
2023/11/15 05:00:26;;;;;;;8.68;7.55;;;;;;;-145.63;54.07;39413.44;4988150;28;20081;-69
2023/11/15 05:02:53;;;;;;;8.40;7.57;;;;;;;-145.63;54.36;39403.66;5004235;28;20307;-69
2023/11/15 05:05:19;;;;;;;9.45;7.80;;;;;;;-145.63;54.85;39444.72;4993752;28;20029;-69
2023/11/15 05:07:45;;;;;;;11.77;9.38;;;;;;;-145.63;54.90;39415.38;4989284;28;20033;-70
2023/11/15 05:10:11;;;;;;;9.95;8.63;;;;;;;-145.63;54.60;39405.59;5003151;28;20030;-69
2023/11/15 05:12:37;;;;;;;10.30;9.30;;;;;;;-145.63;55.06;39403.66;4984827;28;20042;-69
2023/11/15 05:15:04;;;;;;;12.18;9.80;;;;;;;-145.63;55.33;39411.47;5007490;28;20026;-69
2023/11/15 05:17:31;;;;;;;10.55;9.30;;;;;;;-145.63;55.79;39393.88;5003609;28;20053;-69
2023/11/15 05:19:56;;;;;;;11.18;9.65;;;;;;;-145.63;55.83;39425.16;4995893;28;20353;-70
2023/11/15 05:22:22;;;;;;;10.27;8.68;;;;;;;-145.63;55.69;39413.44;4986122;28;20026;-68
2023/11/15 05:24:48;;;;;;;12.02;9.45;;;;;;;-145.63;56.14;39419.31;5003486;28;20034;-69
2023/11/15 05:27:14;;;;;;;10.00;8.98;;;;;;;-145.63;56.53;39399.75;4998461;28;20068;-69
2023/11/15 05:29:40;;;;;;;11.88;9.02;;;;;;;-145.63;56.13;39409.53;4993957;28;20038;-69
2023/11/15 05:32:06;;;;;;;11.00;8.90;;;;;;;-145.63;56.05;39403.66;4995943;28;20252;-69
2023/11/15 05:34:32;;;;;;;10.77;9.30;;;;;;;-145.63;56.33;39411.47;4993676;28;20393;-70
2023/11/15 05:36:58;;;;;;;10.50;8.45;;;;;;;-145.63;55.82;39341.06;5000756;28;20034;-71
2023/11/15 05:39:24;;;;;;;8.43;7.63;;;;;;;-145.63;55.15;39409.53;4998517;28;20027;-69
2023/11/15 05:41:49;;;;;;;8.25;7.45;;;;;;;-145.63;55.78;39401.69;4990510;28;20035;-71
2023/11/15 05:44:15;;;;;;;9.05;7.97;;;;;;;-145.63;56.13;39276.53;4975312;28;20307;-70
2023/11/15 05:46:41;;;;;;;10.25;8.27;;;;;;;-145.63;56.06;39433.00;4989096;28;20023;-72
2023/11/15 05:49:07;;;;;;;8.63;7.20;;;;;;;-145.63;55.79;39397.78;4990856;28;20057;-71
2023/11/15 05:51:36;;;;;;;8.95;7.53;;;;;;;-145.63;55.19;39391.91;5001503;28;20034;-70
2023/11/15 05:54:04;;;;;;;8.55;7.68;;;;;;;-145.63;55.20;39397.78;4986319;28;20062;-71
2023/11/15 05:56:33;;;;;;;8.60;7.18;;;;;;;-145.63;55.83;39384.09;4998215;28;20044;-71
2023/11/15 05:58:59;;;;;;;8.93;7.07;;;;;;;-145.63;56.00;39094.66;5001742;28;20030;-71
2023/11/15 06:01:25;;;;;;;8.00;7.18;;;;;;;-145.63;55.89;39395.84;4995727;28;20027;-71
2023/11/15 06:03:51;;;;;;;8.88;7.47;;;;;;;-145.63;55.83;39395.84;4988702;28;20089;-71
2023/11/15 06:06:17;;;;;;;8.07;7.00;;;;;;;-145.63;55.27;39419.31;4999967;28;20045;-71
2023/11/15 06:08:44;;;;;;;9.85;8.10;;;;;;;-145.63;55.12;39415.38;5000318;28;20560;-71
2023/11/15 06:11:10;;;;;;;8.93;8.02;;;;;;;-145.63;55.53;39374.31;4992991;28;20073;-71
2023/11/15 06:13:41;;;;;;;10.05;7.93;;;;;;;-145.63;55.30;39395.84;4998652;28;20050;-70
2023/11/15 06:16:07;;;;;;;9.05;8.00;;;;;;;-145.63;55.78;39380.19;4992943;28;20061;-71
2023/11/15 06:18:33;;;;;;;9.65;8.40;;;;;;;-145.63;55.63;39411.47;4976567;28;20085;-70
2023/11/15 06:20:59;;;;;;;9.02;7.85;;;;;;;-145.63;55.66;39399.75;4987151;28;20101;-72
2023/11/15 06:23:24;;;;;;;8.98;8.02;;;;;;;-145.63;55.15;39417.34;4992404;28;20026;-71
2023/11/15 06:25:50;;;;;;;9.35;8.10;;;;;;;-145.63;55.63;39407.56;4997490;28;20035;-70
2023/11/15 06:28:16;;;;;;;9.73;8.50;;;;;;;-145.63;55.84;39423.22;4983706;28;20038;-71
2023/11/15 06:30:45;;;;;;;8.75;7.60;;;;;;;-145.63;55.86;39393.88;5002729;28;20082;-71
2023/11/15 06:33:11;;;;;;;10.95;8.65;;;;;;;-145.63;55.66;39466.25;4988565;28;20050;-70
2023/11/15 06:35:37;;;;;;;9.43;7.65;;;;;;;-145.63;55.38;39419.31;5002456;28;20025;-70
2023/11/15 06:38:04;;;;;;;10.63;8.73;;;;;;;-145.63;55.32;39397.78;4987723;28;20027;-71
2023/11/15 06:40:31;;;;;;;10.10;8.02;;;;;;;-145.63;55.40;39419.31;5004176;28;20318;-71
2023/11/15 06:42:57;;;;;;;10.77;7.90;;;;;;;-145.63;55.57;39409.53;4985795;28;20216;-71
2023/11/15 06:45:23;;;;;;;10.00;8.18;;;;;;;-145.63;55.28;39378.22;5004236;28;20023;-71
2023/11/15 06:47:53;;;;;;;8.98;7.80;;;;;;;-145.63;55.01;39407.56;4993781;28;20042;-71
2023/11/15 06:50:19;;;;;;;10.93;7.75;;;;;;;-145.63;54.65;39411.47;5004943;28;20026;-70
2023/11/15 06:52:45;;;;;;;9.30;7.85;;;;;;;-145.63;54.32;39450.59;5002300;28;20030;-71
2023/11/15 06:55:11;;;;;;;9.70;8.25;;;;;;;-145.63;55.14;39374.31;4987361;28;20123;-72
2023/11/15 06:57:40;;;;;;;10.93;8.35;;;;;;;-145.63;54.92;39397.78;4990722;28;20026;-71
2023/11/15 07:00:08;;;;;;;9.38;8.27;;;;;;;-145.63;55.41;39356.72;4997625;28;20031;-71
2023/11/15 07:02:35;;;;;;;10.52;8.20;;;;;;;-145.63;55.65;39082.91;4997675;28;20030;-71
2023/11/15 07:05:02;;;;;;;9.88;7.82;;;;;;;-145.63;54.99;39362.59;4999917;28;20033;-70
2023/11/15 07:07:30;;;;;;;8.98;8.00;;;;;;;-145.63;55.29;39354.75;4988817;28;20030;-72
2023/11/15 07:09:55;;;;;;;9.45;7.85;;;;;;;-145.63;55.42;39405.59;5004673;28;20024;-71
2023/11/15 07:12:23;;;;;;;9.13;7.97;;;;;;;-145.63;54.49;39172.88;4994049;28;20035;-71
2023/11/15 07:14:51;;;;;;;9.15;7.65;;;;;;;-145.63;54.60;39360.63;4996890;28;20199;-70
2023/11/15 07:17:20;;;;;;;8.65;7.75;;;;;;;-145.63;54.47;39395.84;4997835;28;20053;-72
2023/11/15 07:19:47;;;;;;;8.98;7.65;;;;;;;-145.63;54.34;39395.84;4995610;28;20030;-71
2023/11/15 07:22:14;;;;;;;9.80;8.80;;;;;;;-145.63;54.05;39388.00;4986687;28;20143;-70
2023/11/15 07:24:41;;;;;;;8.20;7.03;;;;;;;-145.63;53.88;39380.19;5000725;28;20034;-70
2023/11/15 07:27:07;;;;;;;7.95;7.13;;;;;;;-145.63;53.00;39397.78;4991437;28;20185;-71
2023/11/15 07:29:34;;;;;;;8.48;7.22;;;;;;;-145.63;52.37;39423.22;5004035;28;20022;-72
2023/11/15 07:32:03;;;;;;;7.97;7.18;;;;;;;-145.63;52.75;39376.28;5004273;28;20029;-71
2023/11/15 07:34:33;;;;;;;9.02;7.10;;;;;;;-145.63;52.88;38946.03;4999745;28;20373;-71
2023/11/15 07:36:58;;;;;;;10.23;8.00;;;;;;;-145.63;52.60;39376.28;5004331;28;20396;-71
2023/11/15 07:39:25;;;;;;;9.75;7.72;;;;;;;-145.63;53.27;39419.31;5005470;28;20022;-71
2023/11/15 07:41:51;;;;;;;8.55;7.43;;;;;;;-145.63;52.81;39395.84;5005062;28;20399;-71
2023/11/15 07:44:19;;;;;;;7.75;6.97;;;;;;;-145.63;52.79;39397.78;4997695;28;20299;-71
2023/11/15 07:46:52;;;;;;;9.40;7.95;;;;;;;-145.63;52.29;39172.88;4972274;28;20065;-71
2023/11/15 07:49:20;;;;;;;8.50;7.70;;;;;;;-145.63;52.31;39374.31;5004218;28;20026;-71
2023/11/15 07:51:46;;;;;;;9.60;7.68;;;;;;;-145.63;52.34;39389.97;4985518;28;20050;-72
2023/11/15 07:54:12;;;;;;;8.10;7.30;;;;;;;-145.63;52.74;39376.28;4994125;28;20046;-70
2023/11/15 07:56:38;;;;;;;9.10;7.65;;;;;;;-145.63;52.74;39384.09;4995179;28;20027;-71
2023/11/15 07:59:04;;;;;;;12.05;9.25;;;;;;;-145.63;52.80;39423.22;4995375;28;20040;-71
2023/11/15 08:01:30;;;;;;;13.88;9.55;;;;;;;-145.63;53.92;39389.97;4990650;28;20089;-70
2023/11/15 08:03:55;;;;;;;13.07;9.18;;;;;;;-145.63;54.14;39405.59;4993167;28;20295;-72
2023/11/15 08:06:22;;;;;;;12.38;9.07;;;;;;;-145.63;54.83;39403.66;4995416;28;20022;-72
2023/11/15 08:08:48;;;;;;;11.82;9.88;;;;;;;-145.63;54.70;39388.00;4995363;28;20034;-72
2023/11/15 08:11:15;;;;;;;12.90;10.20;;;;;;;-145.63;54.95;39407.56;4997273;28;20031;-70
2023/11/15 08:13:44;;;;;;;9.60;8.57;;;;;;;-145.63;53.59;39427.13;4986980;28;20038;-70
2023/11/15 08:16:12;;;;;;;11.27;9.10;;;;;;;-145.63;53.50;39391.91;5001570;28;20048;-72
2023/11/15 08:18:39;;;;;;;11.05;9.70;;;;;;;-145.63;54.21;39413.44;4987435;28;20026;-72
2023/11/15 08:21:05;;;;;;;12.00;9.60;;;;;;;-145.63;54.19;39382.13;4998135;28;20034;-73
2023/11/15 08:23:31;;;;;;;13.27;9.43;;;;;;;-145.63;54.27;39409.53;4995138;28;20045;-72
2023/11/15 08:26:02;;;;;;;12.07;9.77;;;;;;;-145.63;54.24;39395.84;4990036;28;20036;-73
2023/11/15 08:28:30;;;;;;;14.50;10.20;;;;;;;-145.63;53.75;39372.34;5003960;28;20089;-72
2023/11/15 08:30:58;;;;;;;11.60;10.13;;;;;;;-145.63;54.02;39433.00;4990406;28;20022;-72
2023/11/15 08:33:26;;;;;;;11.63;9.98;;;;;;;-145.63;53.65;39372.34;5004409;28;20202;-73
2023/11/15 08:35:53;;;;;;;13.43;10.30;;;;;;;-145.63;53.90;39405.59;5003460;28;20103;-73
2023/11/15 08:38:24;;;;;;;12.55;9.90;;;;;;;-145.63;54.32;39395.84;5004813;28;20033;-71
2023/11/15 08:40:51;;;;;;;10.68;9.35;;;;;;;-145.63;53.99;39421.25;5000122;28;20393;-71
2023/11/15 08:43:20;;;;;;;13.00;9.98;;;;;;;-145.63;54.11;39403.66;4984432;28;20030;-72
2023/11/15 08:45:46;;;;;;;12.98;10.38;;;;;;;-145.63;54.21;39374.31;5002714;28;20034;-73
2023/11/15 08:48:13;;;;;;;15.20;10.95;;;;;;;-145.63;54.20;39370.41;4990694;28;20027;-71
2023/11/15 08:50:43;;;;;;;13.00;10.70;;;;;;;-145.63;54.20;39401.69;5004435;28;20026;-71
2023/11/15 08:53:14;;;;;;;12.70;11.30;;;;;;;-145.63;54.24;39384.09;4999068;28;20046;-71
2023/11/15 08:55:44;;;;;;;11.80;10.50;;;;;;;-145.63;54.48;39391.91;4994434;28;20026;-72
2023/11/15 08:58:14;;;;;;;13.50;11.60;;;;;;;-145.63;54.70;39388.00;5004194;28;20026;-72
2023/11/15 09:00:40;;;;;;;14.07;11.85;;;;;;;-145.63;54.23;39411.47;5002893;28;20072;-71
2023/11/15 09:03:06;;;;;;;14.13;10.90;;;;;;;-145.63;54.25;39403.66;4990015;28;20042;-71
2023/11/15 09:05:33;;;;;;;13.32;10.70;;;;;;;-145.63;54.40;39399.75;4993814;28;20041;-71
2023/11/15 09:08:00;;;;;;;14.27;10.52;;;;;;;-145.63;54.84;39395.84;4997915;28;20038;-72
2023/11/15 09:10:27;;;;;;;12.68;10.40;;;;;;;-145.63;54.48;39407.56;4984889;28;20026;-71
2023/11/15 09:12:54;;;;;;;12.85;11.25;;;;;;;-145.63;53.89;39419.31;5003761;28;20034;-71
2023/11/15 09:15:22;;;;;;;12.93;10.30;;;;;;;-145.63;53.73;39399.75;5009529;28;20149;-72
2023/11/15 09:17:50;;;;;;;12.05;10.48;;;;;;;-145.63;53.69;39403.66;5003599;28;20030;-72
2023/11/15 09:20:25;;;;;;;13.70;9.93;;;;;;;-145.63;53.53;39542.53;4996744;28;20022;-72
2023/11/15 09:22:57;;;;;;;13.40;10.13;;;;;;;-145.63;53.25;39534.69;4990089;28;20037;-71
2023/11/15 09:25:26;;;;;;;12.15;10.02;;;;;;;-145.63;52.96;39391.91;5003491;28;20089;-71
2023/11/15 09:27:57;;;;;;;12.70;10.90;;;;;;;-145.63;53.36;39401.69;4983940;28;20070;-71
2023/11/15 09:30:31;;;;;;;13.38;10.73;;;;;;;-145.63;53.21;39384.09;5000074;28;20032;-71
2023/11/15 09:33:02;;;;;;;16.30;10.68;;;;;;;-145.63;52.92;39403.66;4990906;28;20043;-71
2023/11/15 09:35:29;;;;;;;12.88;10.90;;;;;;;-145.63;53.70;39401.69;4992429;28;20034;-72
2023/11/15 09:37:58;;;;;;;13.35;10.88;;;;;;;-145.63;53.01;39411.47;5003493;28;20034;-73
2023/11/15 09:40:28;;;;;;;13.10;10.25;;;;;;;-145.63;53.27;39393.88;5002402;28;20022;-74
2023/11/15 09:42:55;;;;;;;13.23;10.77;;;;;;;-145.63;53.35;39384.09;4983743;28;20330;-71
2023/11/15 09:45:23;;;;;;;14.95;11.55;;;;;;;-145.63;53.67;39417.34;4999141;28;20295;-71
2023/11/15 09:47:58;;;;;;;12.70;10.95;;;;;;;-145.63;53.31;39411.47;4991947;28;20025;-72
2023/11/15 09:50:26;;;;;;;13.70;11.55;;;;;;;-145.63;53.62;39391.91;4997045;28;20065;-72
2023/11/15 09:52:58;;;;;;;14.38;11.15;;;;;;;-145.63;53.23;39454.50;4986240;28;20062;-71
2023/11/15 09:55:25;;;;;;;17.77;10.45;;;;;;;-145.63;52.77;39403.66;4996125;28;20026;-72
2023/11/15 09:57:52;;;;;;;13.27;11.55;;;;;;;-145.63;52.79;39421.25;5002985;28;20038;-71
2023/11/15 10:00:21;;;;;;;13.23;11.75;;;;;;;-145.63;53.04;39421.25;5003002;28;20034;-71
2023/11/15 10:02:50;;;;;;;17.15;11.13;;;;;;;-145.63;52.96;39389.97;4992110;28;20030;-71
2023/11/15 10:05:26;;;;;;;13.90;11.82;;;;;;;-145.63;52.43;38949.94;4996457;28;20030;-71
2023/11/15 10:08:15;;;;;;;12.52;10.40;;;;;;;-145.63;53.22;39470.16;5019174;28;20121;-72
2023/11/15 10:10:46;;;;;;;17.50;10.63;;;;;;;-145.63;53.37;39315.66;5001277;28;20029;-71
2023/11/15 10:13:17;;;;;;;14.20;10.83;;;;;;;-145.63;53.57;39280.44;4982790;28;20033;-72
2023/11/15 10:15:44;;;;;;;13.50;10.43;;;;;;;-145.63;52.70;39446.69;5001447;28;20022;-72
2023/11/15 10:18:12;;;;;;;14.75;10.80;;;;;;;-145.63;52.73;39395.84;5001977;28;20022;-72
2023/11/15 10:20:40;;;;;;;14.70;10.45;;;;;;;-145.63;52.44;39389.97;4993635;28;20030;-72
2023/11/15 10:23:10;;;;;;;15.10;10.95;;;;;;;-145.63;52.65;39517.09;4987067;28;20069;-72
2023/11/15 10:25:54;;;;;;;13.73;10.02;;;;;;;-145.63;52.81;39388.00;5000612;28;20033;-72
2023/11/15 10:28:25;;;;;;;13.40;10.05;;;;;;;-145.63;53.06;39325.41;4983473;28;20031;-72
2023/11/15 10:31:02;;;;;;;17.58;10.90;;;;;;;-145.63;53.18;39399.75;5001697;28;20110;-72
2023/11/15 10:33:31;;;;;;;12.40;11.10;;;;;;;-145.63;52.96;39411.47;5002449;28;20034;-72
2023/11/15 10:36:16;;;;;;;13.70;10.50;;;;;;;-145.63;52.89;39417.34;5002533;28;20377;-72
2023/11/15 10:38:51;;;;;;;12.55;11.18;;;;;;;-145.63;52.46;39434.94;5002585;28;20061;-72
2023/11/15 10:41:20;;;;;;;16.02;10.77;;;;;;;-145.63;52.78;39391.91;5001187;28;20057;-72
2023/11/15 10:43:50;;;;;;;12.05;10.50;;;;;;;-145.63;52.47;39401.69;4985162;28;20499;-72
2023/11/15 10:46:29;;;;;;;12.55;11.18;;;;;;;-145.63;52.73;39433.00;4986101;28;20100;-72
2023/11/15 10:48:58;;;;;;;13.48;10.68;;;;;;;-145.63;51.84;39395.84;4990490;28;20038;-71
2023/11/15 10:51:41;;;;;;;13.85;10.70;;;;;;;-145.63;51.99;39409.53;4989693;28;20061;-72
2023/11/15 10:54:13;;;;;;;12.60;10.65;;;;;;;-145.63;52.23;39407.56;4996140;28;20090;-72
2023/11/15 10:56:42;;;;;;;15.32;11.60;;;;;;;-145.63;51.96;39401.69;4999116;28;20026;-71
2023/11/15 10:59:13;;;;;;;13.88;11.75;;;;;;;-145.63;52.48;39407.56;4999734;28;20037;-72
2023/11/15 11:01:41;;;;;;;19.05;11.93;;;;;;;-145.63;52.53;39125.94;4990084;28;20081;-72
2023/11/15 11:04:10;;;;;;;15.02;11.70;;;;;;;-145.63;53.04;39407.56;5002552;28;20037;-72
2023/11/15 11:06:48;;;;;;;20.55;11.55;;;;;;;-145.63;53.04;39393.88;4984791;28;20026;-71
2023/11/15 11:09:50;;;;;;;17.45;11.38;;;;;;;-145.63;52.56;39427.13;4996807;28;20023;-72
2023/11/15 11:12:20;;;;;;;16.70;11.88;;;;;;;-145.63;52.79;39403.66;4987328;28;20464;-70